Time;durP1;ratioP1;P1;durP2;ratioP2;P2;SDS_P1;SDS_P2;PMS_P1;PMS_P2;Temp;Humidity;BMP_temperature;BMP_pressure;BME280_temperature;BME280_humidity;BME280_pressure;Samples;Min_cycle;Max_cycle;Signal;HPM_P1;HPM_P2
2023/10/09 00:03:08;;;;;;;9.60;2.40;;;10.60;99.90;;;;;;5224674;28;20464;-48
2023/10/09 00:08:21;;;;;;;1.90;1.80;;;10.60;99.90;;;;;;5222767;28;20536;-48
2023/10/09 00:10:57;;;;;;;2.63;2.30;;;10.50;99.90;;;;;;5217912;28;20426;-49
2023/10/09 00:13:31;;;;;;;3.57;2.60;;;10.50;99.90;;;;;;5221538;28;20461;-49
2023/10/09 00:16:13;;;;;;;2.67;2.57;;;10.50;99.90;;;;;;5220927;28;20529;-50
2023/10/09 00:18:46;;;;;;;4.47;2.50;;;10.50;99.90;;;;;;5227400;28;20761;-48
2023/10/09 00:21:20;;;;;;;5.90;2.30;;;10.40;99.90;;;;;;5221405;28;20429;-50
2023/10/09 00:23:55;;;;;;;4.80;2.77;;;10.40;99.90;;;;;;5220883;28;20830;-47
2023/10/09 00:26:26;;;;;;;9.40;2.30;;;10.30;99.90;;;;;;5221753;28;20471;-48
2023/10/09 00:28:57;;;;;;;2.37;2.17;;;10.20;99.90;;;;;;5225667;28;20897;-47
2023/10/09 00:31:33;;;;;;;4.53;2.17;;;10.10;99.90;;;;;;5225377;28;20583;-48
2023/10/09 00:34:05;;;;;;;1.90;1.80;;;10.10;99.90;;;;;;5222444;28;20223;-49
2023/10/09 00:36:49;;;;;;;5.13;2.73;;;10.00;99.90;;;;;;5222433;28;20440;-47
2023/10/09 00:39:42;;;;;;;4.10;2.53;;;10.00;99.90;;;;;;5219391;28;20448;-47
2023/10/09 00:42:15;;;;;;;2.03;1.93;;;9.90;99.90;;;;;;5222051;28;20463;-47
2023/10/09 00:44:48;;;;;;;6.70;2.80;;;9.80;99.90;;;;;;5231089;28;20509;-48
2023/10/09 00:47:33;;;;;;;6.47;2.63;;;9.70;99.90;;;;;;5219381;28;20465;-48
2023/10/09 00:53:02;;;;;;;6.20;2.80;;;9.50;99.90;;;;;;5220782;28;20483;-48
2023/10/09 00:58:23;;;;;;;3.30;2.67;;;9.40;99.90;;;;;;5228984;28;20482;-52
2023/10/09 01:00:54;;;;;;;3.50;2.90;;;9.40;99.90;;;;;;5243171;28;20441;-49
2023/10/09 01:03:26;;;;;;;3.20;2.97;;;9.40;99.90;;;;;;5226472;28;20465;-47
2023/10/09 01:11:29;;;;;;;3.83;3.10;;;9.30;99.90;;;;;;5229264;28;20919;-48
2023/10/09 01:16:43;;;;;;;6.60;3.30;;;9.20;99.90;;;;;;5221897;28;20861;-49
2023/10/09 01:19:21;;;;;;;4.10;3.00;;;9.10;99.90;;;;;;5227242;28;20566;-47
2023/10/09 01:21:54;;;;;;;4.10;3.30;;;9.10;99.90;;;;;;5227858;28;20437;-47
2023/10/09 01:24:26;;;;;;;4.60;3.50;;;9.10;99.90;;;;;;5223437;28;20569;-47
2023/10/09 01:26:59;;;;;;;5.83;3.43;;;9.00;99.90;;;;;;5221289;28;20561;-49
2023/10/09 01:29:30;;;;;;;8.87;4.00;;;9.00;99.90;;;;;;5229987;28;20797;-48
2023/10/09 01:32:00;;;;;;;5.97;3.40;;;9.00;99.90;;;;;;5226288;28;20434;-49
2023/10/09 01:34:38;;;;;;;6.00;4.13;;;8.90;99.90;;;;;;5234022;28;20654;-46
2023/10/09 01:37:15;;;;;;;7.13;5.03;;;8.90;99.90;;;;;;5223630;28;20212;-49
2023/10/09 01:39:48;;;;;;;11.10;4.90;;;8.90;99.90;;;;;;5229644;28;20932;-48
2023/10/09 01:42:44;;;;;;;4.70;4.30;;;8.90;99.90;;;;;;5223501;28;20437;-47
2023/10/09 01:47:51;;;;;;;7.27;4.97;;;8.80;99.90;;;;;;5222288;28;21014;-48
2023/10/09 01:50:24;;;;;;;13.20;5.40;;;8.80;99.90;;;;;;5223033;28;20179;-50
2023/10/09 01:52:55;;;;;;;9.73;4.80;;;8.80;99.90;;;;;;5224182;28;20810;-48
2023/10/09 01:55:30;;;;;;;8.90;5.40;;;8.80;99.90;;;;;;5208356;28;20429;-49
2023/10/09 01:58:27;;;;;;;11.33;5.87;;;8.80;99.90;;;;;;5224696;28;20268;-50
2023/10/09 02:00:55;;;;;;;8.40;5.70;;;8.80;99.90;;;;;;5222130;28;20521;-50
2023/10/09 02:03:29;;;;;;;14.20;6.20;;;8.80;99.90;;;;;;5222221;28;20476;-49
2023/10/09 02:05:59;;;;;;;5.17;4.67;;;8.80;99.90;;;;;;5225947;28;20511;-48
2023/10/09 02:08:35;;;;;;;8.60;5.50;;;8.80;99.90;;;;;;5224139;28;20429;-49
2023/10/09 02:11:14;;;;;;;9.20;5.80;;;8.80;99.90;;;;;;5222500;28;20179;-50
2023/10/09 02:13:47;;;;;;;8.47;6.03;;;8.90;99.90;;;;;;5218970;28;20481;-50
2023/10/09 02:16:28;;;;;;;5.40;5.07;;;8.90;99.90;;;;;;5222577;28;20441;-48
2023/10/09 02:19:07;;;;;;;9.63;6.03;;;8.90;99.90;;;;;;5222443;28;20515;-48
2023/10/09 02:21:41;;;;;;;20.73;5.03;;;9.00;99.90;;;;;;5219923;28;20434;-47
2023/10/09 02:24:28;;;;;;;4.83;4.47;;;9.00;99.90;;;;;;5223058;28;20456;-47
2023/10/09 02:27:08;;;;;;;8.13;4.93;;;9.10;99.90;;;;;;5227423;28;20472;-48
2023/10/09 02:29:39;;;;;;;6.07;4.70;;;9.20;99.90;;;;;;5225294;28;20429;-49
2023/10/09 02:32:25;;;;;;;4.17;3.70;;;9.20;99.90;;;;;;5224662;28;20966;-48
2023/10/09 02:34:58;;;;;;;9.03;5.23;;;9.30;99.90;;;;;;5218655;28;20266;-47
2023/10/09 02:37:37;;;;;;;14.13;5.13;;;9.40;99.90;;;;;;5219849;28;20432;-49
2023/10/09 02:40:08;;;;;;;6.77;3.60;;;9.40;99.90;;;;;;5223192;28;20437;-47
2023/10/09 02:42:42;;;;;;;6.53;4.70;;;9.40;99.90;;;;;;5222505;28;20464;-49
2023/10/09 02:45:16;;;;;;;5.20;4.43;;;9.50;99.90;;;;;;5222064;28;21709;-48
2023/10/09 02:47:48;;;;;;;8.93;4.67;;;9.60;99.90;;;;;;5219805;28;20880;-48
2023/10/09 02:50:22;;;;;;;9.63;4.80;;;9.60;99.90;;;;;;5222305;28;20438;-47
2023/10/09 02:52:59;;;;;;;7.37;5.33;;;9.50;99.90;;;;;;5206409;28;20470;-48
2023/10/09 02:55:30;;;;;;;6.70;5.73;;;9.40;99.90;;;;;;5228686;28;20436;-47
2023/10/09 02:58:10;;;;;;;11.07;5.10;;;9.40;99.90;;;;;;5219060;28;20430;-47
2023/10/09 03:00:44;;;;;;;6.30;5.10;;;9.40;99.90;;;;;;5224458;28;20267;-47
2023/10/09 03:03:18;;;;;;;5.73;5.13;;;9.40;99.90;;;;;;5218000;28;20489;-49
2023/10/09 03:05:49;;;;;;;11.33;5.50;;;9.40;99.90;;;;;;5222011;28;20462;-47
2023/10/09 03:08:22;;;;;;;7.93;5.83;;;9.40;99.90;;;;;;5222318;28;20460;-50
2023/10/09 03:10:52;;;;;;;5.97;4.73;;;9.30;99.90;;;;;;5224690;28;20900;-49
2023/10/09 03:13:23;;;;;;;8.70;6.00;;;9.30;99.90;;;;;;5226304;28;20195;-48
2023/10/09 03:15:54;;;;;;;9.50;5.93;;;9.30;99.90;;;;;;5218810;28;20189;-48
2023/10/09 03:18:24;;;;;;;10.47;6.77;;;9.30;99.90;;;;;;5234420;28;20722;-47
2023/10/09 03:20:59;;;;;;;8.17;5.43;;;9.20;99.90;;;;;;5226252;28;20183;-48
2023/10/09 03:23:50;;;;;;;15.97;6.93;;;9.30;99.90;;;;;;5229241;28;20377;-48
2023/10/09 03:26:21;;;;;;;12.33;7.30;;;9.20;99.90;;;;;;5218174;28;20476;-47
2023/10/09 03:28:54;;;;;;;14.10;6.77;;;9.20;99.90;;;;;;5222277;28;20925;-51
2023/10/09 03:31:25;;;;;;;20.13;8.03;;;9.10;99.90;;;;;;5219968;28;20265;-49
2023/10/09 03:33:56;;;;;;;9.10;5.87;;;9.10;99.90;;;;;;5226160;28;20547;-50
2023/10/09 03:36:26;;;;;;;13.90;8.30;;;9.10;99.90;;;;;;5227341;28;20639;-50
2023/10/09 03:39:03;;;;;;;14.43;8.13;;;9.10;99.90;;;;;;5222477;28;20274;-48
2023/10/09 03:41:40;;;;;;;13.63;7.10;;;9.10;99.90;;;;;;5227838;28;20202;-48
2023/10/09 03:44:13;;;;;;;9.53;7.80;;;9.10;99.90;;;;;;5221753;28;21046;-49
2023/10/09 03:46:45;;;;;;;10.70;6.97;;;9.00;99.90;;;;;;5221780;28;20496;-50
2023/10/09 03:49:22;;;;;;;14.47;7.37;;;9.00;99.90;;;;;;5222277;28;20917;-48
2023/10/09 03:51:53;;;;;;;19.17;8.90;;;9.00;99.90;;;;;;5220792;28;20429;-47
2023/10/09 03:54:25;;;;;;;12.43;7.80;;;9.00;99.90;;;;;;5222067;28;20474;-48
2023/10/09 03:56:58;;;;;;;13.67;7.90;;;9.00;99.90;;;;;;5224384;28;20178;-50
2023/10/09 03:59:32;;;;;;;13.53;8.10;;;9.00;99.90;;;;;;5216725;28;20850;-48
2023/10/09 04:02:04;;;;;;;18.30;9.00;;;9.00;99.90;;;;;;5222964;28;20532;-49
2023/10/09 04:04:36;;;;;;;10.50;7.27;;;8.90;99.90;;;;;;5229677;28;20485;-47
2023/10/09 04:07:07;;;;;;;17.23;8.00;;;8.90;99.90;;;;;;5232732;28;20457;-48
2023/10/09 04:09:39;;;;;;;13.10;6.47;;;9.00;99.90;;;;;;5224828;28;20433;-48
2023/10/09 04:15:01;;;;;;;16.40;7.60;;;9.00;99.90;;;;;;5226490;28;21790;-48
2023/10/09 04:17:35;;;;;;;17.20;9.60;;;9.00;99.90;;;;;;5224682;28;20541;-47
2023/10/09 04:20:51;;;;;;;5.63;5.17;;;9.00;99.90;;;;;;5223114;28;20860;-48
2023/10/09 04:23:05;;;;;;;18.10;8.37;;;9.00;99.90;;;;;;5223943;28;20453;-48
2023/10/09 04:25:42;;;;;;;18.27;10.20;;;9.00;99.90;;;;;;5226764;28;21031;-47
2023/10/09 04:30:46;;;;;;;18.60;9.50;;;9.00;99.90;;;;;;5217659;28;20836;-48
2023/10/09 04:33:42;;;;;;;10.87;7.50;;;9.00;99.90;;;;;;5224783;28;20964;-47
2023/10/09 04:36:21;;;;;;;14.87;8.37;;;8.90;99.90;;;;;;5222731;28;20463;-48
2023/10/09 04:39:36;;;;;;;12.43;7.43;;;8.90;99.90;;;;;;5225247;28;20812;-49
2023/10/09 04:44:35;;;;;;;14.60;8.10;;;8.80;99.90;;;;;;5233422;28;20459;-48
2023/10/09 04:50:01;;;;;;;14.30;8.43;;;8.80;99.90;;;;;;5223465;28;20528;-48
2023/10/09 05:03:07;;;;;;;10.50;8.10;;;8.70;99.90;;;;;;5254728;22;20464;-50
2023/10/09 05:16:18;;;;;;;25.07;10.70;;;8.60;99.90;;;;;;5228348;28;20439;-50
2023/10/09 05:21:49;;;;;;;22.07;10.63;;;8.70;99.90;;;;;;5211007;28;20490;-51
2023/10/09 05:24:23;;;;;;;25.70;11.77;;;8.70;99.90;;;;;;5214150;28;20452;-49
2023/10/09 05:27:15;;;;;;;25.63;10.67;;;8.70;99.90;;;;;;5227358;28;20585;-50
2023/10/09 05:30:12;;;;;;;15.63;9.90;;;8.70;99.90;;;;;;5227869;28;20413;-49
2023/10/09 05:32:48;;;;;;;20.80;11.20;;;8.70;99.90;;;;;;5226329;28;20460;-51
2023/10/09 05:35:29;;;;;;;17.43;10.73;;;8.70;99.90;;;;;;5224408;28;20768;-50
2023/10/09 05:38:04;;;;;;;22.47;11.03;;;8.70;99.90;;;;;;5227281;28;20944;-49
2023/10/09 05:40:35;;;;;;;23.50;12.00;;;8.70;99.90;;;;;;5226296;28;20425;-50
2023/10/09 05:43:06;;;;;;;16.63;11.60;;;8.70;99.90;;;;;;5229384;28;20456;-50
2023/10/09 05:49:19;;;;;;;17.37;11.20;;;8.60;99.90;;;;;;5229430;28;20186;-51
2023/10/09 05:52:32;;;;;;;38.53;15.90;;;8.60;99.90;;;;;;5231779;28;20472;-50
2023/10/09 06:03:23;;;;;;;23.70;12.67;;;8.70;99.90;;;;;;5225772;28;20444;-50
2023/10/09 06:05:41;;;;;;;35.83;15.17;;;8.60;99.90;;;;;;5228335;28;20442;-50
2023/10/09 06:08:12;;;;;;;19.97;12.20;;;8.60;99.90;;;;;;5232417;28;20440;-51
2023/10/09 06:10:43;;;;;;;28.23;14.90;;;8.60;99.90;;;;;;5228139;28;20418;-51
2023/10/09 06:14:03;;;;;;;33.07;15.80;;;8.60;99.90;;;;;;5226341;28;20449;-50
2023/10/09 06:16:29;;;;;;;35.10;15.10;;;8.60;99.90;;;;;;5226923;28;20289;-51
2023/10/09 06:19:12;;;;;;;32.50;14.00;;;8.60;99.90;;;;;;5220394;28;20804;-51
2023/10/09 06:24:23;;;;;;;40.60;13.80;;;8.70;99.90;;;;;;5223213;28;20452;-50
2023/10/09 06:32:34;;;;;;;35.03;15.17;;;8.90;99.90;;;;;;5203595;28;20175;-52
2023/10/09 06:35:30;;;;;;;42.73;16.90;;;8.90;99.90;;;;;;5211570;28;20454;-51
2023/10/09 06:48:55;;;;;;;24.23;12.33;;;9.20;99.90;;;;;;5224968;28;20420;-52
2023/10/09 06:54:05;;;;;;;25.10;11.90;;;9.20;99.90;;;;;;5224169;28;20460;-51
2023/10/09 06:59:24;;;;;;;26.10;11.77;;;9.20;99.90;;;;;;5225188;28;20414;-51
2023/10/09 07:04:46;;;;;;;27.00;12.33;;;9.20;99.90;;;;;;5221088;28;20514;-50
2023/10/09 07:07:20;;;;;;;26.50;12.27;;;9.20;99.90;;;;;;5216356;28;20530;-51
2023/10/09 07:12:44;;;;;;;25.17;13.00;;;9.30;99.90;;;;;;5224053;28;20453;-50
2023/10/09 07:18:18;;;;;;;23.37;10.47;;;9.40;99.90;;;;;;5222928;28;20460;-51
2023/10/09 07:21:11;;;;;;;24.90;9.73;;;9.50;99.90;;;;;;5223710;28;20437;-50
2023/10/09 07:23:49;;;;;;;17.63;10.00;;;9.60;99.90;;;;;;5218133;28;20460;-50
2023/10/09 07:26:25;;;;;;;14.27;9.53;;;9.50;99.90;;;;;;5228834;28;20472;-50
2023/10/09 07:29:08;;;;;;;22.13;9.20;;;9.40;99.90;;;;;;5205343;28;20567;-52
2023/10/09 07:31:45;;;;;;;20.53;10.57;;;9.40;99.90;;;;;;5221802;28;20808;-51
2023/10/09 07:34:31;;;;;;;16.10;8.90;;;9.40;99.90;;;;;;5222336;28;20456;-50
2023/10/09 07:37:03;;;;;;;15.20;8.97;;;9.40;99.90;;;;;;5225981;28;20441;-50
2023/10/09 07:39:34;;;;;;;24.00;11.07;;;9.50;99.90;;;;;;5227230;28;20778;-50
2023/10/09 07:42:33;;;;;;;18.40;10.67;;;9.60;99.90;;;;;;5226610;28;20448;-50
2023/10/09 07:50:40;;;;;;;26.13;12.00;;;9.70;99.90;;;;;;5224839;28;20436;-50
2023/10/09 07:54:14;;;;;;;23.10;9.60;;;9.80;99.90;;;;;;5229355;28;21141;-50
2023/10/09 07:56:20;;;;;;;15.40;9.60;;;9.70;99.90;;;;;;5216770;28;20414;-49
2023/10/09 07:58:51;;;;;;;14.83;9.37;;;9.70;99.90;;;;;;5232802;28;20539;-50
2023/10/09 08:01:22;;;;;;;15.77;10.60;;;9.70;99.90;;;;;;5233008;28;20522;-50
2023/10/09 08:04:04;;;;;;;18.33;10.73;;;9.60;99.90;;;;;;5230057;28;20996;-51
2023/10/09 08:06:38;;;;;;;18.77;9.50;;;9.60;99.90;;;;;;5229686;28;20191;-50
2023/10/09 08:12:04;;;;;;;14.80;7.77;;;9.70;99.90;;;;;;5228395;28;20770;-50
2023/10/09 08:17:15;;;;;;;17.03;9.73;;;9.60;99.90;;;;;;5228237;28;20500;-51
2023/10/09 08:19:53;;;;;;;12.20;8.57;;;9.60;99.90;;;;;;5230166;28;20194;-50
2023/10/09 08:25:02;;;;;;;16.70;10.80;;;9.50;99.90;;;;;;5230051;28;20449;-49
2023/10/09 08:33:40;;;;;;;17.43;9.93;;;9.60;99.90;;;;;;5224947;28;21106;-49
2023/10/09 08:36:04;;;;;;;24.63;11.20;;;9.50;99.90;;;;;;5223244;28;20473;-49
2023/10/09 08:38:35;;;;;;;20.60;11.10;;;9.60;99.90;;;;;;5224992;28;20486;-52
2023/10/09 08:41:17;;;;;;;21.37;11.60;;;9.70;99.90;;;;;;5182182;28;20437;-49
2023/10/09 08:43:53;;;;;;;16.03;8.90;;;9.70;99.90;;;;;;5210178;28;20530;-51
2023/10/09 08:46:28;;;;;;;11.83;7.93;;;9.80;99.90;;;;;;5206089;28;21256;-51
2023/10/09 08:49:00;;;;;;;20.50;9.47;;;9.80;99.90;;;;;;5224957;28;20451;-50
2023/10/09 08:51:32;;;;;;;10.90;8.67;;;9.70;99.90;;;;;;5223610;28;20433;-50
2023/10/09 08:54:04;;;;;;;18.80;9.63;;;9.60;99.90;;;;;;5225347;28;20559;-51
2023/10/09 08:56:35;;;;;;;11.97;9.13;;;9.60;99.90;;;;;;5224659;28;20520;-52
2023/10/09 08:59:06;;;;;;;20.77;12.30;;;9.60;99.90;;;;;;5229037;28;20492;-50
2023/10/09 09:01:37;;;;;;;24.57;12.33;;;9.60;99.90;;;;;;5226039;28;20222;-51
2023/10/09 09:04:08;;;;;;;11.80;8.77;;;9.70;99.90;;;;;;5221401;28;20214;-52
2023/10/09 09:06:40;;;;;;;17.43;9.20;;;9.70;99.90;;;;;;5228082;28;20222;-50
2023/10/09 09:09:15;;;;;;;23.23;10.70;;;9.80;99.90;;;;;;5225059;28;20523;-52
2023/10/09 09:11:48;;;;;;;16.77;9.10;;;9.90;99.90;;;;;;5221129;28;20487;-51
2023/10/09 09:14:19;;;;;;;13.00;9.00;;;9.90;99.90;;;;;;5222643;28;20454;-50
2023/10/09 09:16:52;;;;;;;12.83;9.90;;;10.00;99.90;;;;;;5224195;28;20494;-50
2023/10/09 09:19:32;;;;;;;9.80;8.80;;;10.20;99.90;;;;;;5227652;28;20513;-53
2023/10/09 09:22:12;;;;;;;7.77;6.97;;;10.30;99.90;;;;;;5225083;28;20574;-49
2023/10/09 09:25:03;;;;;;;11.83;9.00;;;10.20;99.90;;;;;;5228608;28;20873;-50
2023/10/09 09:27:52;;;;;;;15.83;9.10;;;10.20;99.90;;;;;;5238126;28;20472;-50
2023/10/09 09:30:34;;;;;;;15.63;9.60;;;10.30;99.90;;;;;;5222508;28;20438;-51
2023/10/09 09:36:02;;;;;;;19.50;10.57;;;10.30;99.90;;;;;;5224048;28;20444;-51
2023/10/09 09:38:42;;;;;;;13.37;9.47;;;10.30;99.90;;;;;;5229020;28;20421;-53
2023/10/09 09:41:23;;;;;;;17.70;8.90;;;10.50;99.90;;;;;;5222950;28;20441;-52
2023/10/09 09:43:56;;;;;;;9.33;8.10;;;10.40;99.90;;;;;;5222255;28;20472;-51
2023/10/09 09:46:33;;;;;;;12.73;8.30;;;10.50;99.90;;;;;;5217750;28;20833;-52
2023/10/09 09:49:05;;;;;;;9.97;7.13;;;10.60;99.90;;;;;;5221279;28;20501;-52
2023/10/09 09:51:36;;;;;;;8.57;6.80;;;10.60;99.90;;;;;;5241732;28;20525;-52
2023/10/09 09:54:09;;;;;;;7.23;5.47;;;10.60;99.90;;;;;;5224438;28;20543;-53
2023/10/09 09:56:44;;;;;;;6.17;5.60;;;10.60;99.90;;;;;;5225113;28;20233;-52
2023/10/09 09:59:21;;;;;;;15.10;5.63;;;10.60;99.90;;;;;;5226162;28;20431;-52
2023/10/09 10:01:58;;;;;;;6.73;4.77;;;10.60;99.90;;;;;;5237559;28;20437;-52
2023/10/09 10:04:35;;;;;;;4.60;4.20;;;10.70;99.90;;;;;;5222520;28;20469;-51
2023/10/09 10:07:12;;;;;;;4.70;4.30;;;10.70;99.90;;;;;;5227434;28;20854;-52
2023/10/09 10:09:44;;;;;;;4.53;4.00;;;10.80;99.90;;;;;;5216602;28;20445;-52
2023/10/09 10:12:46;;;;;;;3.70;3.40;;;10.70;99.90;;;;;;5237175;28;20442;-52
2023/10/09 10:15:17;;;;;;;4.70;4.30;;;10.60;99.90;;;;;;5226201;28;20483;-54
2023/10/09 10:17:58;;;;;;;7.90;4.53;;;10.60;99.90;;;;;;5227674;28;20441;-53
2023/10/09 10:20:31;;;;;;;12.20;5.03;;;10.70;99.90;;;;;;5213674;28;20190;-52
2023/10/09 10:23:25;;;;;;;6.73;5.10;;;10.80;99.90;;;;;;5226253;28;20453;-53
2023/10/09 10:26:16;;;;;;;3.93;3.63;;;10.90;99.90;;;;;;5220532;28;20437;-51
2023/10/09 10:29:22;;;;;;;6.20;3.93;;;11.00;99.90;;;;;;5225340;28;20430;-52
2023/10/09 10:32:12;;;;;;;4.77;3.37;;;11.00;99.90;;;;;;5221045;28;20432;-52
2023/10/09 10:34:56;;;;;;;9.40;4.23;;;11.10;99.90;;;;;;5227504;28;20457;-52
2023/10/09 10:37:44;;;;;;;4.57;4.07;;;11.10;99.90;;;;;;5223070;28;20436;-53
2023/10/09 10:40:38;;;;;;;9.33;4.10;;;11.10;99.90;;;;;;5227053;28;20796;-51
2023/10/09 10:46:24;;;;;;;3.00;2.83;;;11.50;99.90;;;;;;5221339;28;20464;-50
2023/10/09 10:49:14;;;;;;;4.07;3.43;;;11.60;99.90;;;;;;5224507;28;20429;-53
2023/10/09 10:51:48;;;;;;;5.33;3.17;;;11.90;99.90;;;;;;5223008;28;20429;-52
2023/10/09 10:57:19;;;;;;;6.73;3.13;;;12.20;99.90;;;;;;5233093;28;20460;-52
2023/10/09 11:00:03;;;;;;;3.43;3.33;;;12.00;99.90;;;;;;5230004;28;20870;-52
2023/10/09 11:02:37;;;;;;;4.90;3.67;;;11.80;99.90;;;;;;5221275;28;20417;-53
2023/10/09 11:05:23;;;;;;;3.40;3.20;;;11.70;99.90;;;;;;5216258;28;20487;-51
2023/10/09 11:07:58;;;;;;;8.70;3.43;;;11.70;99.90;;;;;;5212108;28;20501;-50
2023/10/09 11:10:31;;;;;;;6.20;3.60;;;12.00;99.90;;;;;;5214790;28;20436;-51
2023/10/09 11:15:46;;;;;;;4.10;3.70;;;12.20;99.90;;;;;;5219083;28;20500;-52
2023/10/09 11:18:20;;;;;;;5.77;3.83;;;12.40;99.90;;;;;;5222390;28;20431;-51
2023/10/09 11:26:23;;;;;;;8.53;3.87;;;12.70;99.90;;;;;;5220299;28;20946;-52
2023/10/09 11:29:28;;;;;;;5.20;4.13;;;12.70;99.90;;;;;;5234601;28;20438;-49
2023/10/09 11:32:08;;;;;;;4.13;3.70;;;12.60;99.90;;;;;;5216953;28;20448;-51
2023/10/09 11:34:41;;;;;;;4.13;3.83;;;12.40;99.90;;;;;;5223743;28;20452;-51
2023/10/09 11:37:11;;;;;;;3.57;3.30;;;12.50;99.90;;;;;;5223689;28;21010;-52
2023/10/09 11:39:52;;;;;;;4.60;3.13;;;12.60;99.90;;;;;;5219328;28;20433;-53
2023/10/09 11:42:37;;;;;;;5.07;4.50;;;12.70;99.90;;;;;;5214621;28;20197;-52
2023/10/09 11:45:28;;;;;;;8.37;4.87;;;12.60;99.90;;;;;;5219851;28;20936;-51
2023/10/09 11:48:20;;;;;;;4.27;3.87;;;12.50;99.90;;;;;;5217874;28;20458;-51
2023/10/09 11:51:18;;;;;;;4.60;4.07;;;12.90;99.90;;;;;;5217310;28;20487;-51
2023/10/09 11:53:49;;;;;;;4.90;4.50;;;13.40;99.90;;;;;;5222570;28;20457;-52
2023/10/09 11:56:26;;;;;;;11.37;4.97;;;13.40;99.90;;;;;;5221205;28;20437;-51
2023/10/09 11:58:58;;;;;;;5.67;4.70;;;13.30;99.90;;;;;;5213357;28;20532;-51
2023/10/09 12:01:35;;;;;;;6.50;5.30;;;13.00;99.90;;;;;;5214209;28;20953;-51
2023/10/09 12:04:09;;;;;;;5.80;5.17;;;12.80;99.90;;;;;;5222727;28;20470;-51
2023/10/09 12:06:42;;;;;;;4.00;3.80;;;12.90;99.90;;;;;;5222212;28;20487;-50
2023/10/09 12:09:23;;;;;;;5.43;4.87;;;13.00;99.90;;;;;;5219830;28;20441;-50
2023/10/09 12:11:54;;;;;;;5.33;4.73;;;12.90;99.90;;;;;;5223112;28;20525;-52
2023/10/09 12:14:26;;;;;;;6.30;4.93;;;12.80;99.90;;;;;;5223876;28;20815;-50
2023/10/09 12:16:57;;;;;;;7.90;5.47;;;12.80;99.90;;;;;;5220365;28;20266;-51
2023/10/09 12:19:28;;;;;;;6.47;5.40;;;12.60;99.90;;;;;;5216742;28;20583;-51
2023/10/09 12:22:00;;;;;;;5.17;4.80;;;12.60;99.90;;;;;;5227102;28;20271;-51
2023/10/09 12:24:32;;;;;;;12.10;6.27;;;12.70;99.90;;;;;;5225892;28;20230;-52
2023/10/09 12:27:09;;;;;;;7.13;6.13;;;12.80;99.90;;;;;;5225645;28;20464;-51
2023/10/09 12:29:44;;;;;;;6.17;5.33;;;12.80;99.90;;;;;;5227445;28;20453;-51
2023/10/09 12:32:19;;;;;;;9.53;4.90;;;13.00;99.90;;;;;;5229504;28;20432;-51
2023/10/09 12:34:50;;;;;;;7.17;6.00;;;13.20;99.90;;;;;;5227186;28;20432;-50
2023/10/09 12:37:21;;;;;;;11.07;6.70;;;13.50;99.90;;;;;;5229593;28;20439;-52
2023/10/09 12:39:55;;;;;;;7.13;6.07;;;13.80;99.90;;;;;;5221589;28;20433;-56
2023/10/09 12:42:28;;;;;;;6.17;5.30;;;14.10;99.90;;;;;;5230414;28;20175;-51
2023/10/09 12:45:01;;;;;;;5.80;5.20;;;14.10;99.90;;;;;;5232267;28;20503;-51
2023/10/09 12:47:32;;;;;;;5.27;4.87;;;13.80;99.90;;;;;;5226501;28;20548;-52
2023/10/09 12:50:13;;;;;;;6.10;5.70;;;13.80;99.90;;;;;;5226878;28;20940;-51
2023/10/09 12:52:46;;;;;;;16.33;6.17;;;13.50;99.90;;;;;;5225676;28;20437;-52
2023/10/09 12:55:21;;;;;;;5.97;5.37;;;13.30;99.90;;;;;;5243489;28;20431;-51
2023/10/09 12:57:52;;;;;;;6.67;6.10;;;13.20;99.90;;;;;;5231580;28;20438;-51
2023/10/09 13:00:25;;;;;;;6.90;6.23;;;13.10;99.90;;;;;;5224654;28;20899;-52
2023/10/09 13:02:56;;;;;;;7.37;6.60;;;13.20;99.90;;;;;;5225105;28;20437;-50
2023/10/09 13:05:27;;;;;;;6.70;6.03;;;13.10;99.90;;;;;;5226017;28;20694;-52
2023/10/09 13:08:01;;;;;;;7.53;6.80;;;12.80;99.90;;;;;;5228368;28;20206;-51
2023/10/09 13:10:32;;;;;;;7.87;7.17;;;12.60;99.90;;;;;;5225109;28;20422;-52
2023/10/09 13:13:06;;;;;;;8.73;7.23;;;12.60;99.90;;;;;;5225544;28;20449;-51
2023/10/09 13:15:42;;;;;;;9.30;6.57;;;12.40;99.90;;;;;;5207744;28;20175;-50
2023/10/09 13:18:14;;;;;;;10.80;7.23;;;12.40;99.90;;;;;;5223938;28;20432;-50
2023/10/09 13:20:45;;;;;;;7.40;6.67;;;12.30;99.90;;;;;;5227430;28;20851;-50
2023/10/09 13:23:17;;;;;;;7.20;6.50;;;12.40;99.90;;;;;;5219547;28;20481;-53
2023/10/09 13:25:47;;;;;;;11.23;6.83;;;12.60;99.90;;;;;;5225557;28;20183;-51
2023/10/09 13:28:20;;;;;;;9.43;6.50;;;12.90;99.90;;;;;;5224873;28;20430;-51
2023/10/09 13:30:51;;;;;;;7.30;6.60;;;13.00;99.90;;;;;;5237932;28;20639;-50
2023/10/09 13:33:21;;;;;;;10.60;7.60;;;12.80;99.90;;;;;;5204736;28;20447;-51
2023/10/09 13:35:52;;;;;;;8.07;6.97;;;12.70;99.90;;;;;;5221239;28;20202;-51
2023/10/09 13:38:23;;;;;;;10.57;8.27;;;12.60;99.90;;;;;;5224005;28;20183;-53
2023/10/09 13:41:01;;;;;;;8.07;7.13;;;12.70;99.90;;;;;;5221718;28;20183;-52
2023/10/09 13:43:31;;;;;;;8.10;7.30;;;12.80;99.90;;;;;;5209884;28;20199;-51
2023/10/09 13:46:03;;;;;;;9.60;7.67;;;12.80;99.90;;;;;;5227016;28;20459;-52
2023/10/09 13:48:38;;;;;;;9.80;7.23;;;13.00;99.90;;;;;;5227975;28;20175;-52
2023/10/09 13:51:18;;;;;;;8.97;8.07;;;13.10;99.90;;;;;;5229835;28;20449;-52
2023/10/09 13:53:49;;;;;;;6.80;6.20;;;13.10;99.90;;;;;;5229180;28;20457;-50
2023/10/09 13:56:20;;;;;;;8.00;6.67;;;13.10;99.90;;;;;;5223171;28;20571;-50
2023/10/09 13:58:53;;;;;;;12.20;8.20;;;13.10;99.90;;;;;;5223446;28;20179;-52
2023/10/09 14:01:27;;;;;;;7.67;6.93;;;13.00;99.90;;;;;;5219169;28;20447;-51
2023/10/09 14:03:59;;;;;;;8.80;7.13;;;12.90;99.90;;;;;;5224083;28;21051;-52
2023/10/09 14:06:30;;;;;;;10.70;7.70;;;12.90;99.90;;;;;;5239441;28;20457;-50
2023/10/09 14:09:04;;;;;;;10.07;7.87;;;12.80;99.90;;;;;;5222038;28;20417;-51
2023/10/09 14:11:39;;;;;;;9.10;7.47;;;12.70;99.90;;;;;;5222774;28;20429;-50
2023/10/09 14:14:11;;;;;;;8.57;7.77;;;12.70;99.90;;;;;;5221129;28;20457;-50
2023/10/09 14:16:43;;;;;;;9.37;8.13;;;12.40;99.90;;;;;;5220685;28;20437;-51
2023/10/09 14:19:14;;;;;;;9.37;8.50;;;12.20;99.90;;;;;;5243214;28;20441;-51
2023/10/09 14:21:49;;;;;;;9.97;9.07;;;12.10;99.90;;;;;;5222634;28;20461;-50
2023/10/09 14:24:25;;;;;;;10.20;7.80;;;12.10;99.90;;;;;;5221665;28;20460;-52
2023/10/09 14:26:57;;;;;;;17.23;9.80;;;12.10;99.90;;;;;;5220142;28;20990;-51
2023/10/09 14:29:27;;;;;;;9.13;8.23;;;12.10;99.90;;;;;;5218527;28;20439;-51
2023/10/09 14:32:02;;;;;;;11.00;8.77;;;12.10;99.90;;;;;;5220671;28;20436;-51
2023/10/09 14:34:35;;;;;;;14.73;9.47;;;12.00;99.90;;;;;;5222933;28;20309;-51
2023/10/09 14:37:06;;;;;;;9.57;8.27;;;11.90;99.90;;;;;;5225388;28;20562;-51
2023/10/09 14:39:48;;;;;;;16.70;9.57;;;11.70;99.90;;;;;;5226252;28;20968;-51
2023/10/09 14:42:22;;;;;;;9.27;8.20;;;11.80;99.90;;;;;;5225708;28;20445;-51
2023/10/09 14:44:55;;;;;;;9.40;7.80;;;11.70;99.90;;;;;;5225623;28;20873;-53
2023/10/09 14:47:26;;;;;;;11.80;8.60;;;11.70;99.90;;;;;;5219932;28;20491;-53
2023/10/09 14:50:01;;;;;;;7.60;6.90;;;11.70;99.90;;;;;;5223860;28;20847;-51
2023/10/09 14:52:32;;;;;;;9.27;8.17;;;11.80;99.90;;;;;;5213303;28;20213;-53
2023/10/09 14:55:04;;;;;;;9.47;8.47;;;11.90;99.90;;;;;;5220231;28;21159;-51
2023/10/09 14:57:35;;;;;;;10.13;7.90;;;11.80;99.90;;;;;;5221712;28;20285;-50
2023/10/09 15:00:15;;;;;;;9.50;8.50;;;11.70;99.90;;;;;;5223941;28;20828;-52
2023/10/09 15:02:46;;;;;;;11.40;8.23;;;11.70;99.90;;;;;;5226987;28;20201;-51
2023/10/09 15:05:17;;;;;;;11.63;8.70;;;11.70;99.90;;;;;;5222975;28;20560;-53
2023/10/09 15:07:50;;;;;;;10.53;7.80;;;11.60;99.90;;;;;;5238828;28;20261;-51
2023/10/09 15:10:23;;;;;;;18.20;10.03;;;11.60;99.90;;;;;;5222512;28;20992;-50
2023/10/09 15:12:54;;;;;;;9.47;8.40;;;11.60;99.90;;;;;;5223650;28;20430;-52
2023/10/09 15:15:27;;;;;;;16.70;9.13;;;11.60;99.90;;;;;;5225881;28;20433;-51
2023/10/09 15:17:58;;;;;;;12.50;9.37;;;11.60;99.90;;;;;;5221806;28;20278;-51
2023/10/09 15:20:29;;;;;;;12.30;9.63;;;11.60;99.90;;;;;;5222343;28;20473;-51
2023/10/09 15:23:01;;;;;;;11.13;9.43;;;11.60;99.90;;;;;;5223462;28;20241;-51
2023/10/09 15:25:33;;;;;;;15.53;10.07;;;11.50;99.90;;;;;;5222960;28;20262;-51
2023/10/09 15:28:07;;;;;;;11.97;9.40;;;11.50;99.90;;;;;;5221712;28;20462;-53
2023/10/09 15:30:38;;;;;;;20.43;10.00;;;11.50;99.90;;;;;;5237432;28;21002;-50
2023/10/09 15:33:10;;;;;;;11.13;9.00;;;11.40;99.90;;;;;;5221649;28;20453;-50
2023/10/09 15:35:42;;;;;;;12.37;9.70;;;11.40;99.90;;;;;;5217527;28;20559;-51
2023/10/09 15:38:13;;;;;;;15.53;10.20;;;11.40;99.90;;;;;;5216096;28;20456;-51
2023/10/09 15:40:47;;;;;;;14.80;10.03;;;11.40;99.90;;;;;;5218620;28;20429;-52
2023/10/09 15:43:18;;;;;;;12.10;9.23;;;11.40;99.90;;;;;;5223193;28;20859;-51
2023/10/09 15:45:48;;;;;;;13.60;10.60;;;11.40;99.90;;;;;;5223137;28;20467;-51
2023/10/09 15:48:21;;;;;;;12.13;9.57;;;11.30;99.90;;;;;;5215892;28;20207;-50